Time;durP1;ratioP1;P1;durP2;ratioP2;P2;SDS_P1;SDS_P2;PMS_P1;PMS_P2;Temp;Humidity;BMP_temperature;BMP_pressure;BME280_temperature;BME280_humidity;BME280_pressure;Samples;Min_cycle;Max_cycle;Signal;HPM_P1;HPM_P2
2024/03/08 00:00:09;;;;;;;0.60;0.60;;;;;;;2.23;97.65;96704.75;29395;284;63004;-54
2024/03/08 00:00:42;;;;;;;0.60;0.60;;;;;;;2.22;97.87;96708.47;29395;298;63009;-54
2024/03/08 00:01:14;;;;;;;0.60;0.60;;;;;;;2.18;97.52;96708.16;29395;203;63004;-54
2024/03/08 00:01:46;;;;;;;0.60;0.60;;;;;;;2.19;97.60;96700.94;29395;254;63009;-55
2024/03/08 00:02:17;;;;;;;8.27;7.80;;;;;;;2.19;97.46;96704.44;29395;237;63005;-54
2024/03/08 00:02:50;;;;;;;0.60;0.60;;;;;;;2.19;98.05;96703.63;29395;199;63019;-70
2024/03/08 00:03:22;;;;;;;0.60;0.60;;;;;;;2.19;97.85;96708.97;29395;214;63005;-54
2024/03/08 00:03:53;;;;;;;0.60;0.60;;;;;;;2.19;98.16;96711.66;29395;236;63019;-55
2024/03/08 00:04:25;;;;;;;0.70;0.70;;;;;;;2.17;97.49;96708.41;29394;237;64009;-54
2024/03/08 00:04:56;;;;;;;0.60;0.60;;;;;;;2.14;97.59;96711.56;29395;240;63009;-54
2024/03/08 00:05:29;;;;;;;0.60;0.60;;;;;;;2.16;97.34;96704.09;29395;198;63015;-55
2024/03/08 00:06:00;;;;;;;0.60;0.60;;;;;;;2.18;97.31;96702.00;29395;211;63009;-54
2024/03/08 00:06:32;;;;;;;0.70;0.70;;;;;;;2.20;97.52;96710.59;29395;239;63004;-54
2024/03/08 00:07:04;;;;;;;0.60;0.60;;;;;;;2.19;97.60;96703.63;29395;207;63009;-54
2024/03/08 00:07:36;;;;;;;0.60;0.60;;;;;;;2.19;97.63;96708.97;29395;205;63004;-54
2024/03/08 00:08:09;;;;;;;0.60;0.60;;;;;;;2.17;97.84;96706.53;29395;234;63017;-55
2024/03/08 00:08:42;;;;;;;0.60;0.60;;;;;;;2.16;98.09;96704.91;29395;268;63014;-54
2024/03/08 00:09:13;;;;;;;0.60;0.60;;;;;;;2.15;98.45;96708.63;29395;209;63009;-54
2024/03/08 00:09:44;;;;;;;0.60;0.60;;;;;;;2.15;98.41;96705.16;29394;203;64009;-54
2024/03/08 00:10:16;;;;;;;0.60;0.60;;;;;;;2.15;98.84;96707.81;29395;223;63009;-54
2024/03/08 00:10:48;;;;;;;0.60;0.60;;;;;;;2.13;98.85;96705.41;29395;207;63005;-55
2024/03/08 00:11:20;;;;;;;0.60;0.60;;;;;;;2.09;99.04;96698.09;29395;206;63019;-54
2024/03/08 00:11:52;;;;;;;0.60;0.60;;;;;;;2.13;98.83;96704.59;29395;226;63005;-54
2024/03/08 00:12:24;;;;;;;0.60;0.60;;;;;;;2.11;99.10;96701.34;29395;314;63009;-54
2024/03/08 00:12:57;;;;;;;0.60;0.60;;;;;;;2.10;99.10;96703.19;29395;203;63005;-54
2024/03/08 00:13:29;;;;;;;0.60;0.60;;;;;;;2.09;99.25;96698.09;29395;197;63026;-54
2024/03/08 00:14:00;;;;;;;0.60;0.60;;;;;;;2.08;99.44;96701.84;29395;206;63004;-54
2024/03/08 00:14:31;;;;;;;0.60;0.60;;;;;;;2.05;99.35;96699.66;29395;282;63009;-54
2024/03/08 00:15:07;;;;;;;0.60;0.60;;;;;;;2.03;99.06;96699.09;29394;197;64009;-54
2024/03/08 00:15:38;;;;;;;0.60;0.60;;;;;;;1.97;99.08;96704.34;29395;205;63009;-54
2024/03/08 00:16:09;;;;;;;0.60;0.60;;;;;;;1.96;99.07;96700.06;29395;250;63009;-54
2024/03/08 00:16:43;;;;;;;0.60;0.60;;;;;;;1.96;99.38;96694.69;29395;224;63008;-54
2024/03/08 00:17:15;;;;;;;0.60;0.60;;;;;;;1.95;99.78;96698.44;29395;202;63005;-54
2024/03/08 00:17:47;;;;;;;0.62;0.62;;;;;;;1.94;99.99;96698.69;29395;260;63016;-54
2024/03/08 00:18:18;;;;;;;0.60;0.60;;;;;;;1.92;99.92;96700.78;29395;214;63005;-54
2024/03/08 00:18:49;;;;;;;0.65;0.65;;;;;;;1.91;99.91;96697.28;29395;225;63009;-55
2024/03/08 00:19:21;;;;;;;0.60;0.60;;;;;;;1.88;99.86;96697.78;29395;233;63005;-54
2024/03/08 00:19:53;;;;;;;0.60;0.60;;;;;;;1.88;100.00;96692.41;29395;222;63009;-54
2024/03/08 00:20:25;;;;;;;0.60;0.60;;;;;;;1.88;100.00;96697.78;29394;198;64009;-54
2024/03/08 00:20:56;;;;;;;0.60;0.60;;;;;;;1.86;100.00;96691.03;29395;246;63009;-55
2024/03/08 00:21:27;;;;;;;0.60;0.60;;;;;;;1.85;100.00;96692.91;29395;212;63004;-54
2024/03/08 00:22:00;;;;;;;0.60;0.60;;;;;;;1.87;100.00;96695.34;29395;216;63009;-55
2024/03/08 00:22:32;;;;;;;0.62;0.62;;;;;;;1.88;100.00;96695.09;29395;245;63004;-54
2024/03/08 00:23:04;;;;;;;0.60;0.60;;;;;;;1.88;100.00;96692.41;29395;229;63009;-55
2024/03/08 00:23:35;;;;;;;0.60;0.60;;;;;;;1.91;100.00;96702.63;29394;219;64004;-69
2024/03/08 00:24:07;;;;;;;0.60;0.60;;;;;;;1.89;100.00;96699.41;29395;235;63008;-54
2024/03/08 00:24:38;;;;;;;0.60;0.60;;;;;;;1.88;100.00;96695.09;29395;203;63005;-55
2024/03/08 00:25:09;;;;;;;0.60;0.60;;;;;;;1.89;100.00;96696.72;29395;222;63009;-54
2024/03/08 00:25:41;;;;;;;0.60;0.60;;;;;;;1.91;100.00;96699.16;29394;227;64009;-54
2024/03/08 00:26:12;;;;;;;0.60;0.60;;;;;;;1.90;100.00;96695.66;29395;226;63009;-55
2024/03/08 00:26:44;;;;;;;0.60;0.60;;;;;;;1.91;100.00;96699.16;29395;240;63005;-54
2024/03/08 00:27:15;;;;;;;0.60;0.60;;;;;;;1.90;100.00;96697.53;29395;216;63009;-54
2024/03/08 00:27:49;;;;;;;0.60;0.60;;;;;;;1.88;100.00;96703.13;29395;227;63005;-54
2024/03/08 00:28:20;;;;;;;0.60;0.60;;;;;;;1.89;100.00;96704.75;29395;259;63009;-54
2024/03/08 00:28:53;;;;;;;0.60;0.60;;;;;;;1.88;100.00;96703.13;29395;216;63004;-53
2024/03/08 00:29:24;;;;;;;0.60;0.60;;;;;;;1.85;100.00;96703.59;29395;222;63009;-54
2024/03/08 00:29:56;;;;;;;0.60;0.60;;;;;;;1.82;100.00;96701.41;29395;272;63004;-54
2024/03/08 00:30:27;;;;;;;0.60;0.60;;;;;;;1.81;100.00;96702.47;29395;204;63009;-54
2024/03/08 00:31:02;;;;;;;0.60;0.60;;;;;;;1.81;100.00;96697.12;29394;214;64008;-54
2024/03/08 00:31:35;;;;;;;0.60;0.60;;;;;;;1.83;100.00;96699.56;29395;238;63008;-54
2024/03/08 00:32:10;;;;;;;0.60;0.60;;;;;;;1.82;100.00;96698.72;29395;216;63011;-54
2024/03/08 00:32:42;;;;;;;0.60;0.60;;;;;;;1.80;100.00;96695.50;29395;225;63025;-55
2024/03/08 00:33:13;;;;;;;1.08;1.08;;;;;;;1.80;100.00;96695.50;29395;204;63005;-54
2024/03/08 00:33:44;;;;;;;0.60;0.60;;;;;;;1.80;100.00;96682.12;29395;215;63009;-54
2024/03/08 00:34:16;;;;;;;0.60;0.60;;;;;;;1.80;100.00;96690.12;29395;286;63005;-54
2024/03/08 00:34:47;;;;;;;0.60;0.60;;;;;;;1.78;100.00;96692.25;29395;245;63009;-54
2024/03/08 00:35:19;;;;;;;0.60;0.60;;;;;;;1.76;100.00;96688.19;29395;217;63005;-54
2024/03/08 00:35:50;;;;;;;0.60;0.60;;;;;;;1.73;100.00;96694.84;29395;232;63009;-54
2024/03/08 00:36:22;;;;;;;0.70;0.70;;;;;;;1.73;100.00;96692.19;29394;204;64009;-54
2024/03/08 00:36:53;;;;;;;0.60;0.60;;;;;;;1.73;100.00;96691.38;29395;242;63009;-55
2024/03/08 00:37:27;;;;;;;0.70;0.70;;;;;;;1.73;100.00;96689.50;29395;215;63004;-55
2024/03/08 00:37:58;;;;;;;0.60;0.60;;;;;;;1.73;100.00;96688.69;29395;198;63009;-54
2024/03/08 00:38:29;;;;;;;0.70;0.70;;;;;;;1.73;100.00;96684.16;29395;302;63004;-54
2024/03/08 00:39:02;;;;;;;0.70;0.70;;;;;;;1.74;100.00;96682.25;29394;253;64008;-54
2024/03/08 00:39:33;;;;;;;0.60;0.60;;;;;;;1.71;100.00;96688.94;29395;213;63011;-55
2024/03/08 00:40:11;;;;;;;0.60;0.60;;;;;;;1.70;100.00;96678.47;29395;284;63009;-55
2024/03/08 00:40:42;;;;;;;0.60;0.60;;;;;;;1.68;100.00;96682.22;29395;218;63009;-55
2024/03/08 00:41:14;;;;;;;0.60;0.60;;;;;;;1.69;100.00;96688.38;29395;212;63009;-70
2024/03/08 00:41:45;;;;;;;0.60;0.60;;;;;;;1.69;100.00;96685.69;29394;303;64009;-54
2024/03/08 00:42:18;;;;;;;0.60;0.60;;;;;;;1.69;100.00;96685.69;29395;229;63009;-54
2024/03/08 00:42:49;;;;;;;0.60;0.60;;;;;;;1.69;100.00;96685.69;29395;232;63005;-54
2024/03/08 00:43:20;;;;;;;5.18;4.55;;;;;;;1.68;100.00;96684.06;29395;237;63009;-54
2024/03/08 00:43:52;;;;;;;0.60;0.60;;;;;;;1.69;100.00;96683.00;29395;237;63004;-55
2024/03/08 00:44:24;;;;;;;0.60;0.60;;;;;;;1.67;100.00;96679.78;29395;208;63009;-54
2024/03/08 00:44:57;;;;;;;0.60;0.60;;;;;;;1.66;100.00;96678.16;29395;207;63015;-54
2024/03/08 00:45:29;;;;;;;0.70;0.70;;;;;;;1.66;100.00;96683.50;29395;211;63009;-54
2024/03/08 00:46:01;;;;;;;0.60;0.60;;;;;;;1.65;100.00;96679.19;29395;217;63004;-54
2024/03/08 00:46:33;;;;;;;0.60;0.60;;;;;;;1.63;100.00;96679.44;29395;225;63008;-54
2024/03/08 00:47:05;;;;;;;0.60;0.60;;;;;;;1.63;100.00;96678.63;29394;228;64009;-54
2024/03/08 00:47:37;;;;;;;0.60;0.60;;;;;;;1.61;100.00;96678.87;29395;203;63009;-54
2024/03/08 00:48:10;;;;;;;0.60;0.60;;;;;;;1.60;100.00;96677.25;29395;199;63008;-54
2024/03/08 00:48:43;;;;;;;0.60;0.60;;;;;;;1.58;100.00;96673.19;29395;226;63013;-55
2024/03/08 00:49:15;;;;;;;0.60;0.60;;;;;;;1.58;100.00;96681.22;29395;230;63005;-55
2024/03/08 00:49:46;;;;;;;0.60;0.60;;;;;;;1.58;100.00;96681.22;29395;266;63009;-54
2024/03/08 00:50:18;;;;;;;0.60;0.60;;;;;;;1.59;100.00;96674.81;29395;210;63005;-54
2024/03/08 00:50:50;;;;;;;0.60;0.60;;;;;;;1.59;100.00;96677.47;29395;233;63009;-54
2024/03/08 00:51:21;;;;;;;5.90;5.65;;;;;;;1.60;100.00;96679.91;29395;230;63004;-55
2024/03/08 00:51:52;;;;;;;0.62;0.62;;;;;;;1.61;100.00;96675.38;29395;269;63009;-54
2024/03/08 00:52:25;;;;;;;0.60;0.60;;;;;;;1.61;100.00;96675.38;29394;225;64009;-55
2024/03/08 00:52:57;;;;;;;0.70;0.70;;;;;;;1.60;100.00;96684.47;29395;241;63009;-54
2024/03/08 00:53:30;;;;;;;0.60;0.60;;;;;;;1.59;100.00;96672.94;29395;236;63004;-54
2024/03/08 00:54:02;;;;;;;0.60;0.60;;;;;;;1.56;100.00;96667.28;29395;196;63008;-54
2024/03/08 00:54:37;;;;;;;0.60;0.60;;;;;;;1.58;100.00;96675.84;29395;278;63005;-55
2024/03/08 00:55:12;;;;;;;0.60;0.60;;;;;;;1.58;100.00;96673.19;29395;204;63009;-55
2024/03/08 00:55:47;;;;;;;0.60;0.60;;;;;;;1.60;100.00;96679.09;29395;207;63019;-55
2024/03/08 00:56:18;;;;;;;0.60;0.60;;;;;;;1.61;100.00;96670.84;29395;233;63009;-54
2024/03/08 00:56:50;;;;;;;0.60;0.60;;;;;;;1.62;100.00;96668.97;29395;333;63018;-55
2024/03/08 00:57:21;;;;;;;0.60;0.60;;;;;;;1.62;100.00;96671.66;29395;229;63009;-56
2024/03/08 00:57:54;;;;;;;0.70;0.70;;;;;;;1.61;100.00;96670.84;29394;206;64009;-54
2024/03/08 00:58:25;;;;;;;0.70;0.70;;;;;;;1.63;100.00;96665.25;29395;202;63009;-56
2024/03/08 00:58:56;;;;;;;0.70;0.70;;;;;;;1.64;100.00;96669.56;29395;236;63009;-55
2024/03/08 00:59:27;;;;;;;0.60;0.60;;;;;;;1.63;100.00;96663.41;29395;283;63009;-54
2024/03/08 00:59:59;;;;;;;0.60;0.60;;;;;;;1.64;100.00;96669.56;29394;196;64009;-54
2024/03/08 01:00:30;;;;;;;0.60;0.60;;;;;;;1.64;100.00;96665.00;29395;214;63008;-54
2024/03/08 01:01:02;;;;;;;0.60;0.60;;;;;;;1.64;100.00;96670.37;29395;198;63004;-54
2024/03/08 01:01:33;;;;;;;0.60;0.60;;;;;;;1.63;100.00;96668.75;29395;214;63008;-54
2024/03/08 01:02:05;;;;;;;0.60;0.60;;;;;;;1.64;100.00;96669.56;29395;213;63009;-55
2024/03/08 01:02:38;;;;;;;0.60;0.60;;;;;;;1.66;100.00;96670.13;29395;221;63009;-55
2024/03/08 01:03:10;;;;;;;0.60;0.60;;;;;;;1.71;100.00;96664.88;29395;203;63005;-55
2024/03/08 01:03:45;;;;;;;0.60;0.60;;;;;;;1.71;99.58;96662.19;29395;210;63009;-54
2024/03/08 01:04:17;;;;;;;0.60;0.60;;;;;;;1.72;99.42;96668.34;29395;217;63005;-55
2024/03/08 01:04:51;;;;;;;0.60;0.60;;;;;;;1.73;99.31;96664.63;29395;240;63009;-56
2024/03/08 01:05:24;;;;;;;0.50;0.50;;;;;;;1.74;99.53;96664.34;29394;211;64009;-54
2024/03/08 01:05:55;;;;;;;0.60;0.60;;;;;;;1.75;99.25;96665.97;29395;196;63009;-54
2024/03/08 01:06:27;;;;;;;0.60;0.60;;;;;;;1.75;98.86;96659.81;29395;228;63004;-54
2024/03/08 01:06:59;;;;;;;0.60;0.60;;;;;;;1.73;98.78;96662.75;29395;211;63009;-55
2024/03/08 01:07:30;;;;;;;0.60;0.60;;;;;;;1.73;98.87;96661.94;29395;202;63004;-55
2024/03/08 01:08:03;;;;;;;0.60;0.60;;;;;;;1.74;98.76;96660.88;29395;206;63008;-55
2024/03/08 01:08:34;;;;;;;0.60;0.60;;;;;;;1.74;98.86;96664.34;29395;220;63004;-55
2024/03/08 01:09:06;;;;;;;0.60;0.60;;;;;;;1.75;99.04;96662.50;29394;217;64014;-54
2024/03/08 01:09:38;;;;;;;0.60;0.60;;;;;;;1.77;98.90;96665.72;29395;290;63005;-55
2024/03/08 01:10:10;;;;;;;0.60;0.60;;;;;;;1.78;99.10;96665.50;29395;210;63009;-55
2024/03/08 01:10:41;;;;;;;0.60;0.60;;;;;;;1.78;98.88;96656.66;29395;204;63005;-55
2024/03/08 01:11:16;;;;;;;0.60;0.60;;;;;;;1.78;98.56;96657.47;29395;249;63009;-54
2024/03/08 01:11:51;;;;;;;0.60;0.60;;;;;;;1.76;98.40;96662.25;29395;274;63005;-55
2024/03/08 01:12:23;;;;;;;0.60;0.60;;;;;;;1.73;98.12;96657.41;29395;225;63009;-54
2024/03/08 01:12:56;;;;;;;0.60;0.60;;;;;;;1.71;98.18;96659.50;29395;224;63005;-55
2024/03/08 01:13:27;;;;;;;0.60;0.60;;;;;;;1.71;98.28;96659.50;29395;232;63009;-55
2024/03/08 01:13:59;;;;;;;0.60;0.60;;;;;;;1.70;98.20;96652.53;29395;237;63004;-54
2024/03/08 01:14:30;;;;;;;0.60;0.60;;;;;;;1.70;98.20;96663.25;29394;227;64013;-54
2024/03/08 01:15:02;;;;;;;0.60;0.60;;;;;;;1.69;98.51;96656.28;29395;269;63004;-56
2024/03/08 01:15:33;;;;;;;0.60;0.60;;;;;;;1.69;98.80;96656.28;29395;229;63008;-54
2024/03/08 01:16:06;;;;;;;0.60;0.60;;;;;;;1.66;99.12;96662.91;29395;234;63004;-55
2024/03/08 01:16:38;;;;;;;0.62;0.62;;;;;;;1.67;98.96;96658.38;29395;207;63009;-55
2024/03/08 01:17:10;;;;;;;0.60;0.60;;;;;;;1.66;98.59;96656.75;29394;240;64009;-56
2024/03/08 01:17:43;;;;;;;3.90;3.65;;;;;;;1.66;98.73;96651.41;29395;227;63009;-55
2024/03/08 01:18:15;;;;;;;0.70;0.70;;;;;;;1.64;98.60;96654.31;29395;250;63018;-55
2024/03/08 01:18:47;;;;;;;0.68;0.68;;;;;;;1.65;98.67;96652.47;29395;366;63009;-55
2024/03/08 01:19:18;;;;;;;0.60;0.60;;;;;;;1.69;98.33;96656.28;29395;213;63005;-55
2024/03/08 01:19:49;;;;;;;0.60;0.60;;;;;;;1.72;98.03;96650.44;29395;202;63009;-56
2024/03/08 01:20:21;;;;;;;0.60;0.60;;;;;;;1.77;97.53;96653.16;29395;240;63005;-55
2024/03/08 01:20:53;;;;;;;0.60;0.60;;;;;;;1.78;96.98;96644.09;29395;272;63009;-55
2024/03/08 01:21:26;;;;;;;0.60;0.60;;;;;;;1.80;96.82;96646.53;29395;269;63004;-55
2024/03/08 01:21:57;;;;;;;0.60;0.60;;;;;;;1.78;96.44;96644.09;29395;222;63009;-55
2024/03/08 01:22:29;;;;;;;0.60;0.60;;;;;;;1.77;96.55;96650.50;29394;325;64009;-56
2024/03/08 01:23:01;;;;;;;0.60;0.60;;;;;;;1.77;96.72;96647.81;29395;216;63027;-54
2024/03/08 01:23:32;;;;;;;0.60;0.60;;;;;;;1.75;96.59;96647.25;29395;233;63004;-54
2024/03/08 01:24:05;;;;;;;0.60;0.60;;;;;;;1.74;96.70;96648.31;29395;215;63009;-55
2024/03/08 01:24:37;;;;;;;0.60;0.60;;;;;;;1.72;96.64;96645.09;29395;249;63005;-56
2024/03/08 01:25:09;;;;;;;0.60;0.60;;;;;;;1.68;96.92;96650.09;29395;240;63009;-54
2024/03/08 01:25:43;;;;;;;0.60;0.60;;;;;;;1.68;96.77;96651.97;29395;210;63005;-55
2024/03/08 01:26:16;;;;;;;0.60;0.60;;;;;;;1.65;97.07;96650.59;29395;223;63009;-57
2024/03/08 01:26:49;;;;;;;0.60;0.60;;;;;;;1.66;97.13;96646.06;29395;394;63005;-54
2024/03/08 01:27:21;;;;;;;0.60;0.60;;;;;;;1.66;97.30;96646.06;29395;256;63009;-54
2024/03/08 01:27:53;;;;;;;0.60;0.60;;;;;;;1.66;97.35;96640.69;29394;213;64009;-55
2024/03/08 01:28:26;;;;;;;0.60;0.60;;;;;;;1.66;97.40;96646.06;29395;274;63009;-55
2024/03/08 01:28:59;;;;;;;0.60;0.60;;;;;;;1.65;97.31;96653.25;29395;222;63004;-54
2024/03/08 01:29:30;;;;;;;0.60;0.60;;;;;;;1.66;97.62;96646.06;29395;248;63009;-55
2024/03/08 01:30:01;;;;;;;0.60;0.60;;;;;;;1.65;97.31;96645.25;29395;223;63004;-55
2024/03/08 01:30:34;;;;;;;0.60;0.60;;;;;;;1.65;97.49;96639.09;29395;216;63008;-55
2024/03/08 01:31:06;;;;;;;0.60;0.60;;;;;;;1.65;97.49;96639.09;29395;197;63004;-56
2024/03/08 01:31:37;;;;;;;0.60;0.60;;;;;;;1.67;97.62;96642.31;29395;320;63009;-55
2024/03/08 01:32:08;;;;;;;0.60;0.60;;;;;;;1.67;97.98;96640.47;29395;239;63005;-55
2024/03/08 01:32:39;;;;;;;0.60;0.60;;;;;;;1.68;97.79;96638.59;29394;200;64014;-55
2024/03/08 01:33:10;;;;;;;0.60;0.60;;;;;;;1.67;97.42;96634.31;29395;220;63005;-54
2024/03/08 01:33:42;;;;;;;0.60;0.60;;;;;;;1.65;97.68;96636.41;29395;223;63009;-55
2024/03/08 01:34:13;;;;;;;0.60;0.60;;;;;;;1.65;97.32;96639.09;29395;239;63005;-55
2024/03/08 01:34:45;;;;;;;0.60;0.60;;;;;;;1.63;97.81;96636.66;29395;222;63009;-54
2024/03/08 01:35:22;;;;;;;42.85;28.23;;;;;;;1.60;97.62;96642.47;29385;214;65005;-55
2024/03/08 01:35:54;;;;;;;0.60;0.60;;;;;;;1.60;97.49;96636.31;29395;266;63009;-55
2024/03/08 01:36:26;;;;;;;0.60;0.60;;;;;;;1.59;97.66;96635.50;29395;314;63004;-55
2024/03/08 01:36:58;;;;;;;0.60;0.60;;;;;;;1.57;98.22;96632.25;29395;215;63009;-55
2024/03/08 01:37:29;;;;;;;0.60;0.60;;;;;;;1.57;97.99;96631.44;29395;215;63004;-55
2024/03/08 01:38:01;;;;;;;0.60;0.60;;;;;;;1.56;98.14;96630.63;29394;243;64013;-55
2024/03/08 01:38:32;;;;;;;0.60;0.60;;;;;;;1.53;98.17;96632.97;29395;218;63004;-55
2024/03/08 01:39:07;;;;;;;0.60;0.60;;;;;;;1.50;98.70;96634.28;29395;275;63009;-55
2024/03/08 01:39:39;;;;;;;0.60;0.60;;;;;;;1.47;98.79;96626.72;29395;234;63005;-55
2024/03/08 01:40:11;;;;;;;0.60;0.60;;;;;;;1.46;99.07;96626.97;29395;202;63009;-56
2024/03/08 01:40:42;;;;;;;0.60;0.60;;;;;;;1.46;99.05;96629.66;29395;280;63005;-55
2024/03/08 01:41:14;;;;;;;0.60;0.60;;;;;;;1.46;99.69;96629.66;29395;247;63009;-56
2024/03/08 01:41:45;;;;;;;0.60;0.60;;;;;;;1.45;98.94;96628.03;29395;226;63014;-54
2024/03/08 01:42:17;;;;;;;0.60;0.60;;;;;;;1.41;99.33;96624.22;29395;352;63009;-55
2024/03/08 01:42:53;;;;;;;0.60;0.60;;;;;;;1.41;99.34;96627.69;29395;207;63013;-54
2024/03/08 01:43:29;;;;;;;0.60;0.60;;;;;;;1.40;99.30;96622.59;29394;284;64013;-56
2024/03/08 01:44:00;;;;;;;0.60;0.60;;;;;;;1.41;99.23;96619.69;29395;204;63004;-56
2024/03/08 01:44:32;;;;;;;0.70;0.70;;;;;;;1.43;98.85;96622.91;29395;196;63009;-55
2024/03/08 01:45:07;;;;;;;0.70;0.70;;;;;;;1.44;98.74;96619.19;29395;228;63004;-55
2024/03/08 01:45:38;;;;;;;0.60;0.60;;;;;;;1.45;98.69;96612.78;29395;212;63008;-54
2024/03/08 01:46:12;;;;;;;0.60;0.60;;;;;;;1.48;98.38;96616.84;29395;270;63004;-55
2024/03/08 01:46:45;;;;;;;0.60;0.60;;;;;;;1.50;98.22;96615.56;29395;214;63009;-54
2024/03/08 01:47:17;;;;;;;0.60;0.60;;;;;;;1.51;97.92;96614.50;29395;223;63009;-54
2024/03/08 01:47:48;;;;;;;0.60;0.60;;;;;;;1.51;98.02;96614.50;29395;222;63017;-56
2024/03/08 01:48:23;;;;;;;0.60;0.60;;;;;;;1.59;97.39;96613.31;29395;237;63005;-55
2024/03/08 01:48:56;;;;;;;0.62;0.62;;;;;;;1.60;96.96;96609.56;29394;244;64013;-55
2024/03/08 01:49:28;;;;;;;0.60;0.60;;;;;;;1.60;97.07;96614.94;29395;209;63005;-55
2024/03/08 01:50:01;;;;;;;0.60;0.60;;;;;;;1.58;97.24;96612.50;29395;250;63009;-55
2024/03/08 01:50:32;;;;;;;0.60;0.60;;;;;;;1.58;97.02;96614.34;29395;225;63005;-55
2024/03/08 01:51:05;;;;;;;0.60;0.60;;;;;;;1.56;97.33;96611.91;29395;220;63009;-55
2024/03/08 01:51:37;;;;;;;0.60;0.60;;;;;;;1.55;97.48;96606.81;29395;218;63004;-54
2024/03/08 01:52:08;;;;;;;0.60;0.60;;;;;;;1.55;97.66;96607.63;29395;230;63009;-55
2024/03/08 01:52:40;;;;;;;0.60;0.60;;;;;;;1.54;97.74;96597.97;29395;230;63004;-55
2024/03/08 01:53:12;;;;;;;0.60;0.60;;;;;;;1.54;98.32;96605.19;29395;211;63016;-55
2024/03/08 01:53:46;;;;;;;0.60;0.60;;;;;;;1.53;98.25;96601.72;29395;201;63004;-56
2024/03/08 01:54:19;;;;;;;0.70;0.70;;;;;;;1.53;98.58;96606.25;29394;237;64014;-55
2024/03/08 01:54:52;;;;;;;0.60;0.60;;;;;;;1.52;98.76;96600.09;29395;225;63005;-55
2024/03/08 01:55:23;;;;;;;0.60;0.60;;;;;;;1.53;98.80;96603.56;29395;224;63009;-55
2024/03/08 01:55:57;;;;;;;0.60;0.60;;;;;;;1.51;99.07;96600.31;29395;218;63005;-55
2024/03/08 01:56:31;;;;;;;0.60;0.60;;;;;;;1.48;98.65;96596.28;29395;223;63009;-55
2024/03/08 01:57:03;;;;;;;0.60;0.60;;;;;;;1.46;98.78;96600.25;29395;210;63005;-55
2024/03/08 01:57:36;;;;;;;0.60;0.60;;;;;;;1.44;98.36;96595.13;29395;206;63009;-54
2024/03/08 01:58:11;;;;;;;0.60;0.60;;;;;;;1.43;98.76;96592.69;29395;212;63005;-55
2024/03/08 01:58:43;;;;;;;1.05;1.05;;;;;;;1.43;98.63;96592.69;29395;198;63009;-55
2024/03/08 01:59:16;;;;;;;0.60;0.60;;;;;;;1.43;98.53;96592.69;29395;207;63004;-55
2024/03/08 01:59:48;;;;;;;0.60;0.60;;;;;;;1.41;98.45;96594.81;29394;288;64013;-55
2024/03/08 02:00:23;;;;;;;0.60;0.60;;;;;;;1.40;98.23;96591.31;29395;204;63004;-55
2024/03/08 02:00:57;;;;;;;0.60;0.60;;;;;;;1.42;98.49;96599.09;29395;207;63008;-56
2024/03/08 02:01:29;;;;;;;0.70;0.70;;;;;;;1.44;98.38;96594.31;29395;213;63004;-55
2024/03/08 02:02:03;;;;;;;0.70;0.70;;;;;;;1.45;98.03;96590.59;29395;211;63009;-55
2024/03/08 02:02:34;;;;;;;0.70;0.70;;;;;;;1.43;97.90;96587.34;29395;209;63005;-55
2024/03/08 02:03:06;;;;;;;0.62;0.62;;;;;;;1.44;97.92;96595.13;29395;285;63009;-55
2024/03/08 02:03:38;;;;;;;0.60;0.60;;;;;;;1.46;97.67;96592.22;29395;237;63008;-54
2024/03/08 02:04:11;;;;;;;0.60;0.60;;;;;;;1.51;97.05;96584.28;29395;206;63009;-55
2024/03/08 02:04:42;;;;;;;0.60;0.60;;;;;;;1.55;96.56;96596.13;29395;285;63005;-55
2024/03/08 02:05:15;;;;;;;0.60;0.60;;;;;;;1.55;95.91;96590.78;29394;202;64013;-54
2024/03/08 02:05:46;;;;;;;0.60;0.60;;;;;;;1.53;95.70;96583.00;29395;204;63004;-55
2024/03/08 02:06:18;;;;;;;0.60;0.60;;;;;;;1.53;95.77;96587.53;29395;267;63009;-55
2024/03/08 02:06:50;;;;;;;0.60;0.60;;;;;;;1.50;95.71;96585.34;29396;305;63004;-56
2024/03/08 02:07:21;;;;;;;0.62;0.62;;;;;;;1.45;95.89;96583.38;29396;223;63009;-55
2024/03/08 02:07:53;;;;;;;0.70;0.70;;;;;;;1.44;95.67;96588.97;29395;298;63004;-56
2024/03/08 02:08:25;;;;;;;0.60;0.60;;;;;;;1.42;96.11;96586.53;29396;246;63015;-55
2024/03/08 02:08:57;;;;;;;0.60;0.60;;;;;;;1.43;95.98;96582.81;29396;222;63004;-54
2024/03/08 02:09:28;;;;;;;0.70;0.70;;;;;;;1.43;96.11;96587.34;29396;236;63009;-55
2024/03/08 02:10:03;;;;;;;0.60;0.60;;;;;;;1.43;96.22;96582.00;29396;285;63009;-54
2024/03/08 02:10:35;;;;;;;0.60;0.60;;;;;;;1.43;96.23;96579.34;29395;199;64013;-55
2024/03/08 02:11:07;;;;;;;0.60;0.60;;;;;;;1.44;96.07;96584.44;29395;241;63005;-55
2024/03/08 02:11:40;;;;;;;0.60;0.60;;;;;;;1.44;96.40;96575.59;29396;196;63009;-69
2024/03/08 02:12:11;;;;;;;0.60;0.60;;;;;;;1.46;96.02;96576.19;29396;243;63005;-55
2024/03/08 02:12:43;;;;;;;0.60;0.60;;;;;;;1.44;95.38;96578.28;29396;224;63009;-71
2024/03/08 02:13:15;;;;;;;0.60;0.60;;;;;;;1.40;95.04;96579.81;29396;292;63004;-55
2024/03/08 02:13:46;;;;;;;0.60;0.60;;;;;;;1.39;95.55;96576.31;29396;198;63009;-55
2024/03/08 02:14:18;;;;;;;0.60;0.60;;;;;;;1.40;95.55;96571.78;29396;310;63004;-55
2024/03/08 02:14:50;;;;;;;0.60;0.60;;;;;;;1.40;96.06;96571.78;29396;202;63009;-55
2024/03/08 02:15:21;;;;;;;0.60;0.60;;;;;;;1.40;96.20;96571.78;29395;204;64004;-55
2024/03/08 02:15:59;;;;;;;0.60;0.60;;;;;;;1.41;96.09;96573.41;29395;281;64014;-57
2024/03/08 02:16:30;;;;;;;0.60;0.60;;;;;;;1.40;96.30;96574.47;29395;294;64009;-56
2024/03/08 02:17:02;;;;;;;0.60;0.60;;;;;;;1.40;96.22;96571.78;29396;214;63009;-55
2024/03/08 02:17:34;;;;;;;0.60;0.60;;;;;;;1.42;96.31;96570.50;29396;290;63005;-55
2024/03/08 02:18:05;;;;;;;0.65;0.65;;;;;;;1.42;96.21;96569.69;29396;203;63009;-54
2024/03/08 02:18:39;;;;;;;0.60;0.60;;;;;;;1.43;96.39;96568.63;29396;196;63005;-55
2024/03/08 02:19:10;;;;;;;0.70;0.70;;;;;;;1.43;96.32;96566.78;29396;218;63009;-55
2024/03/08 02:19:41;;;;;;;0.70;0.70;;;;;;;1.43;96.42;96566.78;29396;281;63005;-55
2024/03/08 02:20:14;;;;;;;0.60;0.60;;;;;;;1.43;96.46;96565.97;29396;209;63009;-55
2024/03/08 02:20:57;;;;;;;0.60;0.60;;;;;;;1.41;96.50;96563.53;29396;226;63004;-55
2024/03/08 02:21:29;;;;;;;0.60;0.60;;;;;;;1.42;96.38;96561.66;29395;225;64013;-55
2024/03/08 02:22:04;;;;;;;0.70;0.70;;;;;;;1.41;96.36;96565.41;29396;202;63004;-56
2024/03/08 02:22:37;;;;;;;0.60;0.60;;;;;;;1.42;96.33;96559.00;29396;218;63008;-55
2024/03/08 02:23:08;;;;;;;0.60;0.60;;;;;;;1.41;96.24;96557.38;29396;196;63004;-55
2024/03/08 02:23:40;;;;;;;0.60;0.60;;;;;;;1.40;96.31;96571.78;29396;213;63009;-56
2024/03/08 02:24:20;;;;;;;0.60;0.60;;;;;;;1.38;96.33;96564.03;29396;227;63020;-54
2024/03/08 02:24:51;;;;;;;0.60;0.60;;;;;;;1.36;96.70;96560.00;29396;311;63009;-56
2024/03/08 02:25:23;;;;;;;0.60;0.60;;;;;;;1.33;97.20;96562.09;29396;228;63005;-55
2024/03/08 02:25:56;;;;;;;0.60;0.60;;;;;;;1.33;97.15;96556.75;29396;222;63009;-55
2024/03/08 02:26:28;;;;;;;0.60;0.60;;;;;;;1.33;97.30;96562.09;29396;197;63011;-68
2024/03/08 02:26:59;;;;;;;0.60;0.60;;;;;;;1.31;97.39;96558.84;29395;196;64013;-68
2024/03/08 02:27:31;;;;;;;0.60;0.60;;;;;;;1.30;97.56;96554.56;29396;220;63005;-55
2024/03/08 02:28:03;;;;;;;0.60;0.60;;;;;;;1.29;97.92;96560.97;29396;199;63025;-54
2024/03/08 02:28:36;;;;;;;0.60;0.60;;;;;;;1.29;97.97;96557.47;29396;229;63004;-54
2024/03/08 02:29:09;;;;;;;0.60;0.60;;;;;;;1.28;98.24;96562.00;29395;211;64013;-55
2024/03/08 02:29:47;;;;;;;0.60;0.60;;;;;;;1.27;98.45;96552.38;29396;206;63004;-55
2024/03/08 02:30:19;;;;;;;0.60;0.60;;;;;;;1.27;98.46;96552.38;29396;237;63008;-55
2024/03/08 02:30:51;;;;;;;0.60;0.60;;;;;;;1.29;98.25;96557.47;29396;224;63004;-56
2024/03/08 02:31:22;;;;;;;0.60;0.60;;;;;;;1.29;98.22;96560.97;29396;239;63009;-55
2024/03/08 02:31:53;;;;;;;0.60;0.60;;;;;;;1.29;97.92;96555.59;29396;239;63008;-55
2024/03/08 02:32:25;;;;;;;0.60;0.60;;;;;;;1.30;97.85;96551.88;29396;251;63009;-55
2024/03/08 02:32:57;;;;;;;0.60;0.60;;;;;;;1.31;97.58;96553.50;29396;228;63015;-55
2024/03/08 02:33:28;;;;;;;0.60;0.60;;;;;;;1.31;97.47;96553.50;29396;237;63021;-55
2024/03/08 02:34:08;;;;;;;0.60;0.60;;;;;;;1.31;97.51;96558.84;29396;242;63005;-55
2024/03/08 02:34:39;;;;;;;0.60;0.60;;;;;;;1.32;97.42;96554.31;29395;222;64013;-55
2024/03/08 02:35:11;;;;;;;0.68;0.68;;;;;;;1.33;97.14;96551.41;29396;215;63004;-55